createdAt,value
2018-07-05T00:00:30.820Z,21.46
2018-07-05T00:01:30.888Z,21.52
2018-07-05T00:02:30.952Z,21.45
2018-07-05T00:03:31.024Z,21.50
2018-07-05T00:04:31.092Z,21.46
2018-07-05T00:05:31.155Z,21.43
2018-07-05T00:06:31.220Z,21.45
2018-07-05T00:07:31.284Z,21.42
2018-07-05T00:08:31.392Z,21.46
2018-07-05T00:09:31.420Z,21.39
2018-07-05T00:10:31.494Z,21.43
2018-07-05T00:11:31.553Z,21.43
2018-07-05T00:12:31.621Z,21.43
2018-07-05T00:13:31.693Z,21.39
2018-07-05T00:14:31.761Z,21.35
2018-07-05T00:15:31.821Z,21.43
2018-07-05T00:16:31.885Z,21.45
2018-07-05T00:17:31.954Z,21.42
2018-07-05T00:18:32.025Z,21.43
2018-07-05T00:19:32.094Z,21.42
2018-07-05T00:20:32.157Z,21.39
2018-07-05T00:21:32.222Z,21.36
2018-07-05T00:22:32.290Z,21.37
2018-07-05T00:23:32.357Z,21.35
2018-07-05T00:24:32.421Z,21.35
2018-07-05T00:25:32.489Z,21.39
2018-07-05T00:26:32.549Z,21.40
2018-07-05T00:27:32.617Z,21.37
2018-07-05T00:28:32.690Z,21.32
2018-07-05T00:29:32.757Z,21.27
2018-07-05T00:30:32.819Z,21.27
2018-07-05T00:31:32.885Z,21.27
2018-07-05T00:32:32.949Z,21.25
2018-07-05T00:33:33.038Z,21.32
2018-07-05T00:34:33.089Z,21.32
2018-07-05T00:35:33.149Z,21.27
2018-07-05T00:36:33.217Z,21.27
2018-07-05T00:37:33.285Z,21.29
2018-07-05T00:38:33.561Z,21.22
2018-07-05T00:39:33.418Z,21.27
2018-07-05T00:40:33.482Z,21.24
2018-07-05T00:41:33.545Z,21.22
2018-07-05T00:42:33.617Z,21.18
2018-07-05T00:43:33.689Z,21.24
2018-07-05T00:44:33.758Z,21.17
2018-07-05T00:45:33.813Z,21.18
2018-07-05T00:46:33.881Z,21.17
2018-07-05T00:47:33.962Z,21.11
2018-07-05T00:48:34.026Z,21.21
2018-07-05T00:49:34.090Z,21.18
2018-07-05T00:50:34.146Z,21.21
2018-07-05T00:51:34.218Z,21.05
2018-07-05T00:52:34.282Z,21.06
2018-07-05T00:53:34.362Z,21.05
2018-07-05T00:54:34.426Z,21.00
2018-07-05T00:55:34.479Z,21.11
2018-07-05T00:56:34.550Z,21.14
2018-07-05T00:57:34.614Z,21.12
2018-07-05T00:58:34.698Z,21.14
2018-07-05T00:59:34.754Z,21.14
2018-07-05T01:00:34.818Z,21.12
2018-07-05T01:01:34.882Z,21.11
2018-07-05T01:02:34.946Z,21.09
2018-07-05T01:03:35.018Z,21.15
2018-07-05T01:04:35.086Z,21.07
2018-07-05T01:05:35.150Z,21.11
2018-07-05T01:06:35.210Z,21.02
2018-07-05T01:07:35.278Z,21.05
2018-07-05T01:08:35.358Z,21.07
2018-07-05T01:09:35.422Z,20.97
2018-07-05T01:10:35.479Z,21.00
2018-07-05T01:11:35.543Z,20.97
2018-07-05T01:12:35.642Z,20.96
2018-07-05T01:13:35.694Z,21.00
2018-07-05T01:14:35.747Z,20.96
2018-07-05T01:15:35.831Z,20.93
2018-07-05T01:16:35.874Z,21.00
2018-07-05T01:17:35.939Z,20.97
2018-07-05T01:18:36.014Z,20.93
2018-07-05T01:19:36.090Z,20.97
2018-07-05T01:20:36.143Z,20.92
2018-07-05T01:21:36.207Z,20.97
2018-07-05T01:22:36.278Z,20.88
2018-07-05T01:23:36.362Z,20.95
2018-07-05T01:24:36.423Z,20.84
2018-07-05T01:25:36.481Z,20.82
2018-07-05T01:26:36.540Z,20.92
2018-07-05T01:27:36.608Z,20.81
2018-07-05T01:28:36.683Z,20.84
2018-07-05T01:29:36.759Z,20.82
2018-07-05T01:30:36.807Z,20.88
2018-07-05T01:31:36.878Z,20.95
2018-07-05T01:32:36.939Z,20.85
2018-07-05T01:33:37.007Z,20.92
2018-07-05T01:34:37.079Z,20.92
2018-07-05T01:35:37.135Z,20.88
2018-07-05T01:36:37.207Z,20.92
2018-07-05T01:37:37.272Z,20.88
2018-07-05T01:38:37.343Z,20.85
2018-07-05T01:39:37.416Z,20.88
2018-07-05T01:40:37.471Z,20.88
2018-07-05T01:41:37.536Z,20.84
2018-07-05T01:42:37.603Z,20.82
2018-07-05T01:43:37.688Z,20.85
2018-07-05T01:44:37.740Z,20.87
2018-07-05T01:45:37.804Z,20.92
2018-07-05T01:46:37.880Z,20.95
2018-07-05T01:47:37.941Z,20.93
2018-07-05T01:48:38.009Z,20.93
2018-07-05T01:49:38.083Z,20.93
2018-07-05T01:50:38.132Z,20.95
2018-07-05T01:51:38.200Z,20.97
2018-07-05T01:52:38.264Z,20.96
2018-07-05T01:53:38.571Z,20.95
2018-07-05T01:54:38.396Z,20.97
2018-07-05T01:55:38.468Z,20.99
2018-07-05T01:56:38.533Z,21.00
2018-07-05T01:57:38.597Z,21.00
2018-07-05T01:58:38.672Z,21.00
2018-07-05T01:59:38.736Z,20.93
2018-07-05T02:00:38.796Z,20.95
2018-07-05T02:01:38.872Z,20.95
2018-07-05T02:02:38.933Z,20.90
2018-07-05T02:03:39.005Z,20.96
2018-07-05T02:04:39.070Z,20.93
2018-07-05T02:05:39.125Z,20.84
2018-07-05T02:06:39.196Z,20.84
2018-07-05T02:07:39.261Z,20.87
2018-07-05T02:08:39.336Z,20.80
2018-07-05T02:09:39.417Z,20.87
2018-07-05T02:10:39.465Z,20.82
2018-07-05T02:11:39.528Z,20.81
2018-07-05T02:12:39.593Z,20.82
2018-07-05T02:13:39.665Z,20.85
2018-07-05T02:14:39.746Z,20.85
2018-07-05T02:15:39.800Z,20.77
2018-07-05T02:16:39.862Z,20.82
2018-07-05T02:17:39.926Z,20.82
2018-07-05T02:18:39.990Z,20.84
2018-07-05T02:19:40.066Z,20.82
2018-07-05T02:20:40.130Z,20.81
2018-07-05T02:21:40.190Z,20.81
2018-07-05T02:22:40.258Z,20.88
2018-07-05T02:23:40.326Z,20.95
2018-07-05T02:24:40.394Z,20.95
2018-07-05T02:25:40.462Z,20.93
2018-07-05T02:26:40.527Z,20.96
2018-07-05T02:27:40.590Z,20.90
2018-07-05T02:28:40.658Z,20.92
2018-07-05T02:29:40.731Z,20.87
2018-07-05T02:30:40.815Z,20.90
2018-07-05T02:31:40.859Z,20.92
2018-07-05T02:32:40.922Z,20.93
2018-07-05T02:33:40.987Z,20.97
2018-07-05T02:34:41.071Z,21.00
2018-07-05T02:35:41.143Z,20.95
2018-07-05T02:36:41.187Z,21.02
2018-07-05T02:37:41.254Z,21.07
2018-07-05T02:38:41.319Z,21.05
2018-07-05T02:39:41.391Z,21.07
2018-07-05T02:40:41.460Z,21.11
2018-07-05T02:41:41.519Z,21.11
2018-07-05T02:42:41.583Z,21.09
2018-07-05T02:43:41.654Z,21.12
2018-07-05T02:44:41.723Z,21.15
2018-07-05T02:45:41.796Z,21.12
2018-07-05T02:46:41.853Z,21.09
2018-07-05T02:47:41.923Z,21.07
2018-07-05T02:48:41.984Z,21.11
2018-07-05T02:49:42.064Z,21.00
2018-07-05T02:50:42.124Z,21.03
2018-07-05T02:51:42.184Z,21.06
2018-07-05T02:52:42.252Z,20.95
2018-07-05T02:53:42.320Z,21.03
2018-07-05T02:54:42.396Z,20.97
2018-07-05T02:55:42.456Z,20.96
2018-07-05T02:56:42.537Z,20.96
2018-07-05T02:57:42.584Z,20.85
2018-07-05T02:58:42.653Z,20.80
2018-07-05T02:59:42.720Z,20.81
2018-07-05T03:00:42.785Z,20.81
2018-07-05T03:01:42.858Z,20.78
2018-07-05T03:02:42.913Z,20.81
2018-07-05T03:03:42.981Z,20.74
2018-07-05T03:04:43.052Z,20.72
2018-07-05T03:05:43.120Z,20.70
2018-07-05T03:06:43.189Z,20.69
2018-07-05T03:07:43.245Z,20.66
2018-07-05T03:08:43.314Z,20.67
2018-07-05T03:09:43.385Z,20.69
2018-07-05T03:10:43.457Z,20.69
2018-07-05T03:11:43.533Z,20.74
2018-07-05T03:12:43.577Z,20.74
2018-07-05T03:13:43.645Z,20.62
2018-07-05T03:14:43.717Z,20.66
2018-07-05T03:15:43.789Z,20.70
2018-07-05T03:16:43.845Z,20.70
2018-07-05T03:17:43.910Z,20.66
2018-07-05T03:18:43.977Z,20.70
2018-07-05T03:19:44.049Z,20.67
2018-07-05T03:20:44.125Z,20.67
2018-07-05T03:21:44.177Z,20.60
2018-07-05T03:22:44.241Z,20.63
2018-07-05T03:23:44.310Z,20.62
2018-07-05T03:24:44.601Z,20.60
2018-07-05T03:25:44.441Z,20.60
2018-07-05T03:26:44.513Z,20.62
2018-07-05T03:27:44.573Z,20.56
2018-07-05T03:28:44.641Z,20.41
2018-07-05T03:29:44.714Z,20.44
2018-07-05T03:30:44.784Z,20.52
2018-07-05T03:31:44.842Z,20.50
2018-07-05T03:32:44.910Z,20.32
2018-07-05T03:33:44.974Z,20.43
2018-07-05T03:34:45.046Z,20.36
2018-07-05T03:35:45.114Z,20.36
2018-07-05T03:36:45.170Z,20.36
2018-07-05T03:37:45.245Z,20.34
2018-07-05T03:38:45.302Z,20.29
2018-07-05T03:39:45.574Z,20.32
2018-07-05T03:40:45.438Z,20.28
2018-07-05T03:41:45.502Z,20.34
2018-07-05T03:42:45.578Z,20.40
2018-07-05T03:43:45.637Z,20.43
2018-07-05T03:44:45.710Z,20.43
2018-07-05T03:45:45.777Z,20.48
2018-07-05T03:46:45.834Z,20.36
2018-07-05T03:47:45.922Z,20.48
2018-07-05T03:48:45.966Z,20.47
2018-07-05T03:49:46.038Z,20.36
2018-07-05T03:50:46.106Z,20.40
2018-07-05T03:51:46.167Z,20.50
2018-07-05T03:52:46.230Z,20.47
2018-07-05T03:53:46.299Z,20.48
2018-07-05T03:54:46.375Z,20.51
2018-07-05T03:55:46.439Z,20.44
2018-07-05T03:56:46.499Z,20.43
2018-07-05T03:57:46.562Z,20.51
2018-07-05T03:58:46.627Z,20.43
2018-07-05T03:59:46.703Z,20.52
2018-07-05T04:00:46.773Z,20.43
2018-07-05T04:01:46.831Z,20.56
2018-07-05T04:02:46.896Z,20.51
2018-07-05T04:03:46.960Z,20.52
2018-07-05T04:04:47.035Z,20.55
2018-07-05T04:05:47.099Z,20.56
2018-07-05T04:06:47.159Z,20.58
2018-07-05T04:07:47.231Z,20.62
2018-07-05T04:08:47.291Z,20.67
2018-07-05T04:09:47.551Z,20.62
2018-07-05T04:10:47.423Z,20.58
2018-07-05T04:11:47.491Z,20.58
2018-07-05T04:12:47.555Z,20.62
2018-07-05T04:13:47.621Z,20.69
2018-07-05T04:14:47.699Z,20.67
2018-07-05T04:15:47.821Z,20.74
2018-07-05T04:16:47.824Z,20.74
2018-07-05T04:17:47.888Z,20.69
2018-07-05T04:18:47.964Z,20.69
2018-07-05T04:19:48.027Z,20.59
2018-07-05T04:20:48.095Z,20.59
2018-07-05T04:21:48.152Z,20.62
2018-07-05T04:22:48.223Z,20.58
2018-07-05T04:23:48.300Z,20.51
2018-07-05T04:24:48.359Z,20.60
2018-07-05T04:25:48.427Z,20.55
2018-07-05T04:26:48.484Z,20.59
2018-07-05T04:27:48.559Z,20.48
2018-07-05T04:28:48.626Z,20.51
2018-07-05T04:29:48.692Z,20.56
2018-07-05T04:30:48.756Z,20.58
2018-07-05T04:31:48.820Z,20.55
2018-07-05T04:32:48.886Z,20.50
2018-07-05T04:33:48.948Z,20.36
2018-07-05T04:34:49.020Z,20.40
2018-07-05T04:35:49.089Z,20.37
2018-07-05T04:36:49.153Z,20.07
2018-07-05T04:37:49.212Z,20.09
2018-07-05T04:38:49.280Z,19.99
2018-07-05T04:39:49.356Z,20.02
2018-07-05T04:40:49.420Z,19.85
2018-07-05T04:41:49.484Z,19.77
2018-07-05T04:42:49.569Z,19.76
2018-07-05T04:43:49.612Z,19.74
2018-07-05T04:44:49.700Z,19.81
2018-07-05T04:45:49.756Z,19.81
2018-07-05T04:46:49.812Z,19.79
2018-07-05T04:47:49.917Z,19.79
2018-07-05T04:48:49.941Z,19.69
2018-07-05T04:49:50.025Z,19.62
2018-07-05T04:50:50.084Z,19.55
2018-07-05T04:51:50.141Z,19.49
2018-07-05T04:52:50.204Z,19.45
2018-07-05T04:53:50.272Z,19.49
2018-07-05T04:54:50.368Z,19.41
2018-07-05T04:55:50.414Z,19.39
2018-07-05T04:56:50.473Z,19.41
2018-07-05T04:57:50.557Z,19.30
2018-07-05T04:58:50.601Z,19.33
2018-07-05T04:59:50.677Z,19.39
2018-07-05T05:00:50.746Z,19.31
2018-07-05T05:01:50.813Z,19.37
2018-07-05T05:02:50.871Z,19.33
2018-07-05T05:03:50.937Z,19.34
2018-07-05T05:04:51.006Z,19.34
2018-07-05T05:05:51.141Z,19.21
2018-07-05T05:06:51.138Z,19.31
2018-07-05T05:07:51.202Z,19.34
2018-07-05T05:08:51.282Z,19.40
2018-07-05T05:09:51.341Z,19.47
2018-07-05T05:10:51.425Z,19.56
2018-07-05T05:11:51.462Z,19.52
2018-07-05T05:12:51.525Z,19.55
2018-07-05T05:13:51.593Z,19.52
2018-07-05T05:14:51.718Z,19.55
2018-07-05T05:15:51.734Z,19.49
2018-07-05T05:16:51.794Z,19.52
2018-07-05T05:17:51.858Z,19.67
2018-07-05T05:18:51.927Z,19.64
2018-07-05T05:19:52.011Z,19.69
2018-07-05T05:20:52.078Z,19.63
2018-07-05T05:21:52.126Z,19.69
2018-07-05T05:22:52.187Z,19.66
2018-07-05T05:23:52.254Z,19.66
2018-07-05T05:24:52.434Z,19.79
2018-07-05T05:25:52.390Z,19.82
2018-07-05T05:26:52.458Z,19.92
2018-07-05T05:27:52.518Z,19.95
2018-07-05T05:28:52.598Z,20.03
2018-07-05T05:29:52.702Z,20.06
2018-07-05T05:30:52.725Z,20.09
2018-07-05T05:31:52.790Z,20.06
2018-07-05T05:32:52.850Z,20.16
2018-07-05T05:33:52.919Z,20.11
2018-07-05T05:34:52.992Z,20.19
2018-07-05T05:35:53.075Z,20.24
2018-07-05T05:36:53.115Z,20.36
2018-07-05T05:37:53.178Z,20.29
2018-07-05T05:38:53.250Z,20.19
2018-07-05T05:39:53.514Z,20.24
2018-07-05T05:40:53.382Z,20.22
2018-07-05T05:41:53.447Z,20.26
2018-07-05T05:42:53.510Z,20.24
2018-07-05T05:43:53.587Z,20.18
2018-07-05T05:44:53.650Z,20.25
2018-07-05T05:45:53.716Z,20.32
2018-07-05T05:46:53.775Z,20.36
2018-07-05T05:47:53.848Z,20.51
2018-07-05T05:48:53.910Z,20.58
2018-07-05T05:49:53.991Z,20.58
2018-07-05T05:50:54.047Z,20.63
2018-07-05T05:51:54.107Z,20.74
2018-07-05T05:52:54.175Z,20.69
2018-07-05T05:53:54.239Z,20.70
2018-07-05T05:54:54.619Z,20.82
2018-07-05T05:55:54.376Z,20.87
2018-07-05T05:56:54.439Z,20.82
2018-07-05T05:57:54.508Z,20.92
2018-07-05T05:58:54.571Z,20.99
2018-07-05T05:59:54.652Z,20.99
2018-07-05T06:00:54.715Z,21.07
2018-07-05T06:01:54.794Z,21.11
2018-07-05T06:02:54.844Z,21.15
2018-07-05T06:03:54.907Z,21.12
2018-07-05T06:04:54.980Z,21.17
2018-07-05T06:05:55.048Z,21.20
2018-07-05T06:06:55.108Z,21.25
2018-07-05T06:07:55.185Z,21.25
2018-07-05T06:08:55.240Z,21.35
2018-07-05T06:09:55.308Z,21.36
2018-07-05T06:10:55.396Z,21.35
2018-07-05T06:11:55.441Z,21.45
2018-07-05T06:12:55.508Z,21.52
2018-07-05T06:13:55.576Z,21.67
2018-07-05T06:14:55.644Z,21.70
2018-07-05T06:15:55.716Z,21.62
2018-07-05T06:16:55.785Z,21.67
2018-07-05T06:17:55.844Z,21.75
2018-07-05T06:18:55.912Z,21.72
2018-07-05T06:19:55.986Z,21.85
2018-07-05T06:20:56.056Z,21.80
2018-07-05T06:21:56.121Z,21.93
2018-07-05T06:22:56.181Z,21.93
2018-07-05T06:23:56.249Z,21.96
2018-07-05T06:24:56.317Z,22.04
2018-07-05T06:25:56.389Z,22.11
2018-07-05T06:26:56.457Z,22.29
2018-07-05T06:27:56.517Z,22.36
2018-07-05T06:28:56.586Z,22.47
2018-07-05T06:29:56.653Z,22.62
2018-07-05T06:30:56.734Z,23.12
2018-07-05T06:31:56.798Z,23.93
2018-07-05T06:32:56.859Z,24.84
2018-07-05T06:33:56.926Z,24.92
2018-07-05T06:34:56.993Z,25.11
2018-07-05T06:35:57.069Z,25.14
2018-07-05T06:36:57.141Z,25.13
2018-07-05T06:37:57.202Z,25.13
2018-07-05T06:38:57.269Z,25.58
2018-07-05T06:39:57.342Z,25.53
2018-07-05T06:40:57.417Z,25.31
2018-07-05T06:41:57.502Z,25.54
2018-07-05T06:42:57.549Z,26.28
2018-07-05T06:43:57.618Z,26.73
2018-07-05T06:44:57.694Z,27.07
2018-07-05T06:45:57.765Z,27.40
2018-07-05T06:46:57.838Z,27.77
2018-07-05T06:47:57.905Z,28.44
2018-07-05T06:48:57.974Z,28.48
2018-07-05T06:49:58.046Z,28.82
2018-07-05T06:50:58.139Z,28.89
2018-07-05T06:51:58.186Z,28.96
2018-07-05T06:52:58.294Z,29.05
2018-07-05T06:53:58.334Z,28.82
2018-07-05T06:54:58.406Z,29.24
2018-07-05T06:55:58.486Z,29.38
2018-07-05T06:56:58.559Z,28.75
2018-07-05T06:57:58.642Z,28.11
2018-07-05T06:58:58.699Z,27.58
2018-07-05T06:59:58.771Z,27.26
2018-07-05T07:00:58.850Z,26.93
2018-07-05T07:01:58.922Z,26.60
2018-07-05T07:02:58.990Z,26.37
2018-07-05T07:03:59.063Z,26.31
2018-07-05T07:04:59.135Z,26.16
2018-07-05T07:05:59.522Z,26.05
2018-07-05T07:06:59.278Z,25.93
2018-07-05T07:07:59.382Z,25.87
2018-07-05T07:08:59.431Z,25.68
2018-07-05T07:09:59.495Z,25.63
2018-07-05T07:10:59.570Z,25.66
2018-07-05T07:11:59.642Z,25.58
2018-07-05T07:12:59.711Z,25.58
2018-07-05T07:13:59.791Z,25.60
2018-07-05T07:14:59.851Z,25.43
2018-07-05T07:15:59.936Z,25.26
2018-07-05T07:16:59.999Z,25.18
2018-07-05T07:18:00.063Z,24.93
2018-07-05T07:19:00.135Z,24.81
2018-07-05T07:20:00.203Z,24.66
2018-07-05T07:21:00.295Z,24.36
2018-07-05T07:22:00.347Z,24.33
2018-07-05T07:23:00.416Z,24.18
2018-07-05T07:24:00.487Z,23.98
2018-07-05T07:25:00.567Z,23.98
2018-07-05T07:26:00.631Z,23.99
2018-07-05T07:27:00.703Z,24.08
2018-07-05T07:28:00.767Z,24.05
2018-07-05T07:29:00.835Z,23.98
2018-07-05T07:30:00.924Z,24.01
2018-07-05T07:31:00.984Z,23.95
2018-07-05T07:32:01.096Z,24.02
2018-07-05T07:33:01.116Z,24.08
2018-07-05T07:34:01.189Z,24.06
2018-07-05T07:35:01.256Z,24.29
2018-07-05T07:36:01.448Z,24.29
2018-07-05T07:37:01.393Z,24.65
2018-07-05T07:38:01.465Z,24.80
2018-07-05T07:39:01.533Z,24.92
2018-07-05T07:40:01.603Z,25.14
2018-07-05T07:41:01.676Z,25.48
2018-07-05T07:42:01.751Z,25.33
2018-07-05T07:43:01.815Z,25.43
2018-07-05T07:44:01.880Z,25.54
2018-07-05T07:45:01.953Z,25.36
2018-07-05T07:46:02.033Z,25.29
2018-07-05T07:47:02.097Z,25.33
2018-07-05T07:48:02.161Z,25.58
2018-07-05T07:49:02.229Z,25.90
2018-07-05T07:50:02.301Z,26.41
2018-07-05T07:51:02.488Z,26.55
2018-07-05T07:52:02.441Z,26.62
2018-07-05T07:53:02.513Z,26.34
2018-07-05T07:54:02.585Z,26.16
2018-07-05T07:55:02.652Z,25.91
2018-07-05T07:56:02.729Z,25.98
2018-07-05T07:57:02.797Z,26.15
2018-07-05T07:58:02.868Z,26.37
2018-07-05T07:59:02.941Z,26.41
2018-07-05T08:00:03.006Z,26.44
2018-07-05T08:01:03.089Z,26.65
2018-07-05T08:02:03.161Z,26.68
2018-07-05T08:03:03.213Z,26.85
2018-07-05T08:04:03.285Z,27.10
2018-07-05T08:05:03.357Z,27.20
2018-07-05T08:06:03.433Z,27.37
2018-07-05T08:07:03.517Z,28.11
2018-07-05T08:08:03.604Z,28.64
2018-07-05T08:09:03.641Z,28.70
2018-07-05T08:10:03.713Z,28.39
2018-07-05T08:11:03.789Z,28.10
2018-07-05T08:12:03.861Z,27.45
2018-07-05T08:13:03.931Z,27.39
2018-07-05T08:14:03.998Z,27.22
2018-07-05T08:15:04.119Z,27.36
2018-07-05T08:16:04.154Z,27.32
2018-07-05T08:17:04.214Z,27.40
2018-07-05T08:18:04.289Z,27.52
2018-07-05T08:19:04.351Z,27.59
2018-07-05T08:20:04.426Z,27.71
2018-07-05T08:21:04.506Z,27.78
2018-07-05T08:22:04.578Z,27.21
2018-07-05T08:23:04.662Z,27.15
2018-07-05T08:24:04.714Z,27.12
2018-07-05T08:25:04.786Z,27.17
2018-07-05T08:26:04.862Z,27.22
2018-07-05T08:27:04.934Z,27.29
2018-07-05T08:28:04.998Z,27.32
2018-07-05T08:29:05.074Z,27.49
2018-07-05T08:30:05.142Z,27.54
2018-07-05T08:31:05.326Z,27.96
2018-07-05T08:32:05.286Z,28.12
2018-07-05T08:33:05.358Z,28.11
2018-07-05T08:34:05.450Z,28.78
2018-07-05T08:35:05.511Z,28.69
2018-07-05T08:36:05.579Z,28.39
2018-07-05T08:37:05.651Z,28.30
2018-07-05T08:38:05.718Z,28.22
2018-07-05T08:39:05.803Z,28.20
2018-07-05T08:40:05.863Z,28.19
2018-07-05T08:41:05.939Z,27.89
2018-07-05T08:42:06.020Z,28.00
2018-07-05T08:43:06.079Z,27.92
2018-07-05T08:44:06.151Z,28.07
2018-07-05T08:45:06.224Z,28.25
2018-07-05T08:46:06.444Z,28.91
2018-07-05T08:47:06.372Z,29.26
2018-07-05T08:48:06.439Z,29.69
2018-07-05T08:49:06.511Z,30.19
2018-07-05T08:50:06.587Z,30.00
2018-07-05T08:51:06.678Z,29.35
2018-07-05T08:52:06.736Z,29.41
2018-07-05T08:53:06.804Z,29.38
2018-07-05T08:54:06.878Z,29.45
2018-07-05T08:55:06.960Z,29.47
2018-07-05T08:56:07.027Z,29.22
2018-07-05T08:57:07.100Z,29.08
2018-07-05T08:58:07.168Z,29.01
2018-07-05T08:59:07.240Z,28.84
2018-07-05T09:00:07.313Z,28.69
2018-07-05T09:01:07.392Z,28.72
2018-07-05T09:02:07.464Z,28.60
2018-07-05T09:03:07.530Z,28.47
2018-07-05T09:04:07.604Z,28.37
2018-07-05T09:05:07.713Z,28.25
2018-07-05T09:06:07.778Z,28.32
2018-07-05T09:07:07.824Z,28.27
2018-07-05T09:08:07.892Z,28.26
2018-07-05T09:09:07.968Z,28.11
2018-07-05T09:10:08.036Z,27.90
2018-07-05T09:11:08.133Z,27.80
2018-07-05T09:12:08.180Z,27.77
2018-07-05T09:13:08.252Z,27.26
2018-07-05T09:14:08.324Z,27.27
2018-07-05T09:15:08.400Z,27.49
2018-07-05T09:16:08.473Z,27.18
2018-07-05T09:17:08.544Z,27.36
2018-07-05T09:18:08.717Z,27.68
2018-07-05T09:19:08.681Z,27.83
2018-07-05T09:20:08.753Z,27.80
2018-07-05T09:21:08.833Z,27.51
2018-07-05T09:22:08.925Z,26.84
2018-07-05T09:23:08.998Z,26.78
2018-07-05T09:24:09.041Z,26.85
2018-07-05T09:25:09.113Z,26.90
2018-07-05T09:26:09.301Z,27.12
2018-07-05T09:27:09.257Z,27.25
2018-07-05T09:28:09.329Z,27.29
2018-07-05T09:29:09.401Z,27.51
2018-07-05T09:30:09.473Z,27.44
2018-07-05T09:31:09.609Z,26.85
2018-07-05T09:32:09.621Z,26.62
2018-07-05T09:33:09.698Z,26.23
2018-07-05T09:34:09.757Z,25.99
2018-07-05T09:35:09.829Z,25.88
2018-07-05T09:36:09.909Z,25.85
2018-07-05T09:37:10.011Z,25.88
2018-07-05T09:38:10.065Z,25.84
2018-07-05T09:39:10.113Z,25.90
2018-07-05T09:40:10.186Z,25.83
2018-07-05T09:41:10.569Z,25.84
2018-07-05T09:42:10.345Z,25.78
2018-07-05T09:43:10.397Z,25.78
2018-07-05T09:44:10.470Z,25.63
2018-07-05T09:45:10.543Z,25.66
2018-07-05T09:46:10.617Z,25.66
2018-07-05T09:47:10.686Z,25.80
2018-07-05T09:48:10.754Z,25.85
2018-07-05T09:49:10.838Z,25.83
2018-07-05T09:50:10.895Z,25.90
2018-07-05T09:51:10.970Z,25.98
2018-07-05T09:52:11.042Z,26.02
2018-07-05T09:53:11.106Z,26.18
2018-07-05T09:54:11.182Z,26.31
2018-07-05T09:55:11.250Z,26.28
2018-07-05T09:56:11.314Z,26.44
2018-07-05T09:57:11.558Z,26.68
2018-07-05T09:58:11.461Z,26.59
2018-07-05T09:59:11.526Z,26.65
2018-07-05T10:00:11.598Z,26.66
2018-07-05T10:01:11.666Z,26.80
2018-07-05T10:02:11.746Z,26.95
2018-07-05T10:03:11.814Z,27.27
2018-07-05T10:04:11.878Z,27.37
2018-07-05T10:05:11.951Z,27.54
2018-07-05T10:06:12.035Z,27.82
2018-07-05T10:07:12.250Z,28.04
2018-07-05T10:08:12.163Z,27.73
2018-07-05T10:09:12.235Z,28.12
2018-07-05T10:10:12.314Z,28.19
2018-07-05T10:11:12.374Z,28.33
2018-07-05T10:12:12.455Z,28.51
2018-07-05T10:13:12.576Z,28.66
2018-07-05T10:14:12.591Z,28.81
2018-07-05T10:15:12.659Z,28.86
2018-07-05T10:16:12.731Z,29.05
2018-07-05T10:17:12.816Z,29.27
2018-07-05T10:18:12.884Z,29.34
2018-07-05T10:19:12.947Z,29.47
2018-07-05T10:20:13.019Z,29.71
2018-07-05T10:21:13.092Z,29.57
2018-07-05T10:22:13.271Z,29.66
2018-07-05T10:23:13.236Z,29.49
2018-07-05T10:24:13.312Z,29.56
2018-07-05T10:25:13.379Z,29.78
2018-07-05T10:26:13.476Z,29.93
2018-07-05T10:27:13.533Z,30.09
2018-07-05T10:28:13.599Z,30.34
2018-07-05T10:29:13.668Z,29.86
2018-07-05T10:30:13.739Z,29.73
2018-07-05T10:31:13.811Z,29.81
2018-07-05T10:32:13.895Z,29.95
2018-07-05T10:33:13.964Z,30.16
2018-07-05T10:34:14.036Z,30.34
2018-07-05T10:35:14.104Z,30.21
2018-07-05T10:36:14.176Z,29.82
2018-07-05T10:37:14.268Z,29.87
2018-07-05T10:38:14.532Z,29.94
2018-07-05T10:39:14.392Z,30.13
2018-07-05T10:40:14.464Z,29.87
2018-07-05T10:41:14.540Z,29.93
2018-07-05T10:42:14.632Z,30.15
2018-07-05T10:43:14.688Z,30.16
2018-07-05T10:44:14.764Z,30.09
2018-07-05T10:45:14.830Z,30.21
2018-07-05T10:46:14.904Z,30.32
2018-07-05T10:47:14.972Z,30.16
2018-07-05T10:48:15.053Z,29.97
2018-07-05T10:49:15.124Z,29.79
2018-07-05T10:50:15.192Z,29.45
2018-07-05T10:51:15.264Z,29.56
2018-07-05T10:52:15.336Z,29.61
2018-07-05T10:53:15.432Z,29.87
2018-07-05T10:54:15.493Z,29.94
2018-07-05T10:55:15.571Z,29.76
2018-07-05T10:56:15.633Z,29.45
2018-07-05T10:57:15.701Z,29.24
2018-07-05T10:58:15.788Z,29.04
2018-07-05T10:59:15.853Z,28.93
2018-07-05T11:00:15.921Z,28.82
2018-07-05T11:01:15.995Z,28.89
2018-07-05T11:02:16.067Z,27.83
2018-07-05T11:03:16.293Z,27.96
2018-07-05T11:04:16.229Z,28.26
2018-07-05T11:05:16.282Z,28.64
2018-07-05T11:06:16.353Z,28.81
2018-07-05T11:07:16.427Z,29.17
2018-07-05T11:08:16.505Z,29.56
2018-07-05T11:09:16.597Z,29.41
2018-07-05T11:10:16.647Z,29.22
2018-07-05T11:11:16.713Z,29.32
2018-07-05T11:12:16.789Z,29.41
2018-07-05T11:13:16.866Z,29.20
2018-07-05T11:14:16.938Z,28.91
2018-07-05T11:15:17.009Z,28.96
2018-07-05T11:16:17.078Z,29.02
2018-07-05T11:17:17.150Z,29.16
2018-07-05T11:18:17.290Z,29.35
2018-07-05T11:19:17.294Z,29.50
2018-07-05T11:20:17.386Z,29.44
2018-07-05T11:21:17.442Z,29.66
2018-07-05T11:22:17.510Z,29.86
2018-07-05T11:23:17.599Z,29.98
2018-07-05T11:24:17.662Z,30.10
2018-07-05T11:25:17.726Z,30.08
2018-07-05T11:26:17.798Z,29.68
2018-07-05T11:27:17.870Z,29.81
2018-07-05T11:28:17.951Z,29.93
2018-07-05T11:29:18.023Z,29.78
2018-07-05T11:30:18.142Z,29.60
2018-07-05T11:31:18.166Z,29.57
2018-07-05T11:32:18.230Z,29.27
2018-07-05T11:33:18.322Z,29.14
2018-07-05T11:34:18.375Z,29.16
2018-07-05T11:35:18.450Z,29.19
2018-07-05T11:36:18.587Z,29.19
2018-07-05T11:37:18.590Z,29.13
2018-07-05T11:38:18.670Z,29.16
2018-07-05T11:39:18.747Z,28.94
2018-07-05T11:40:18.806Z,28.84
2018-07-05T11:41:18.879Z,28.84
2018-07-05T11:42:18.953Z,28.88
2018-07-05T11:43:19.031Z,28.66
2018-07-05T11:44:19.103Z,28.76
2018-07-05T11:45:19.167Z,28.97
2018-07-05T11:46:19.239Z,29.01
2018-07-05T11:47:19.323Z,29.17
2018-07-05T11:48:19.400Z,29.39
2018-07-05T11:49:19.455Z,29.54
2018-07-05T11:50:19.528Z,29.63
2018-07-05T11:51:19.599Z,29.47
2018-07-05T11:52:19.753Z,29.76
2018-07-05T11:53:19.748Z,30.02
2018-07-05T11:54:19.820Z,29.66
2018-07-05T11:55:19.884Z,29.97
2018-07-05T11:56:19.956Z,30.03
2018-07-05T11:57:20.028Z,30.19
2018-07-05T11:58:20.116Z,30.25
2018-07-05T11:59:20.172Z,30.25
2018-07-05T12:00:20.243Z,30.19
2018-07-05T12:01:20.316Z,30.12
2018-07-05T12:02:20.388Z,30.13
2018-07-05T12:03:20.476Z,29.84
2018-07-05T12:04:20.540Z,29.71
2018-07-05T12:05:20.607Z,29.78
2018-07-05T12:06:20.676Z,29.93
2018-07-05T12:07:20.748Z,30.03
2018-07-05T12:08:20.847Z,30.06
2018-07-05T12:09:20.896Z,29.90
2018-07-05T12:10:20.964Z,29.98
2018-07-05T12:11:21.036Z,29.86
2018-07-05T12:12:21.143Z,29.97
2018-07-05T12:13:21.196Z,30.06
2018-07-05T12:14:21.256Z,30.34
2018-07-05T12:15:21.344Z,30.69
2018-07-05T12:16:21.400Z,30.69
2018-07-05T12:17:21.465Z,30.63
2018-07-05T12:18:21.560Z,30.39
2018-07-05T12:19:21.632Z,30.46
2018-07-05T12:20:21.681Z,30.63
2018-07-05T12:21:21.752Z,30.94
2018-07-05T12:22:21.828Z,30.65
2018-07-05T12:23:21.912Z,30.21
2018-07-05T12:24:21.989Z,30.28
2018-07-05T12:25:22.045Z,30.21
2018-07-05T12:26:22.125Z,30.34
2018-07-05T12:27:22.196Z,30.12
2018-07-05T12:28:22.324Z,30.05
2018-07-05T12:29:22.410Z,30.09
2018-07-05T12:30:22.406Z,30.23
2018-07-05T12:31:22.476Z,30.43
2018-07-05T12:32:22.557Z,30.24
2018-07-05T12:33:22.685Z,30.19
2018-07-05T12:34:22.697Z,30.10
2018-07-05T12:35:22.762Z,30.53
2018-07-05T12:36:22.835Z,30.66
2018-07-05T12:37:22.905Z,30.73
2018-07-05T12:38:22.986Z,30.21
2018-07-05T12:39:23.095Z,30.27
2018-07-05T12:40:23.128Z,30.35
2018-07-05T12:41:23.193Z,30.09
2018-07-05T12:42:23.269Z,30.19
2018-07-05T12:43:23.337Z,30.16
2018-07-05T12:44:23.813Z,29.86
2018-07-05T12:45:23.486Z,29.95
2018-07-05T12:46:23.562Z,29.90
2018-07-05T12:47:23.626Z,29.98
2018-07-05T12:48:23.698Z,29.93
2018-07-05T12:49:23.771Z,29.91
2018-07-05T12:50:23.949Z,30.09
2018-07-05T12:51:23.918Z,30.03
2018-07-05T12:52:23.996Z,30.05
2018-07-05T12:53:24.062Z,29.73